Time;durP1;ratioP1;P1;durP2;ratioP2;P2;SDS_P1;SDS_P2;PMS_P1;PMS_P2;Temp;Humidity;BMP_temperature;BMP_pressure;BME280_temperature;BME280_humidity;BME280_pressure;Samples;Min_cycle;Max_cycle;Signal;HPM_P1;HPM_P2
2021/05/31 00:01:41;;;;;;;9.45;2.73;;;;;;;9.36;66.57;101035.17;125595;1096;22935;-59
2021/05/31 00:04:10;;;;;;;10.63;2.48;;;;;;;9.31;67.18;101035.77;125649;1096;22832;-58
2021/05/31 00:06:49;;;;;;;9.63;2.53;;;;;;;9.26;67.19;101037.11;125599;1096;27561;-58
2021/05/31 00:09:20;;;;;;;8.63;2.60;;;;;;;9.23;67.01;101028.88;125650;1096;22822;-58
2021/05/31 00:11:52;;;;;;;9.70;2.40;;;;;;;9.17;67.11;101028.66;125582;1101;24572;-58
2021/05/31 00:14:21;;;;;;;7.57;2.37;;;;;;;9.12;67.46;101022.89;125691;1101;22722;-59
2021/05/31 00:16:54;;;;;;;11.78;2.55;;;;;;;9.05;67.25;101023.91;125553;1101;22747;-59
2021/05/31 00:19:24;;;;;;;7.50;2.10;;;;;;;9.02;67.56;101029.61;125533;1096;27613;-58
2021/05/31 00:21:54;;;;;;;9.13;2.90;;;;;;;8.98;67.11;101020.59;125732;1101;22748;-58
2021/05/31 00:24:26;;;;;;;7.07;2.30;;;;;;;8.91;67.19;101018.83;125583;1101;22737;-59
2021/05/31 00:26:56;;;;;;;8.65;2.30;;;;;;;8.86;67.24;101011.02;125595;1096;26665;-59
2021/05/31 00:29:27;;;;;;;9.93;2.78;;;;;;;8.82;67.32;101019.51;125664;1096;25848;-59
2021/05/31 00:31:59;;;;;;;10.00;2.53;;;;;;;8.76;67.38;101021.30;125664;1102;22820;-58
2021/05/31 00:34:29;;;;;;;8.80;2.77;;;;;;;8.70;67.37;101030.66;125595;1101;22774;-58
2021/05/31 00:37:00;;;;;;;9.28;3.05;;;;;;;8.61;67.53;101019.41;125646;1101;22767;-57
2021/05/31 00:39:35;;;;;;;10.73;2.77;;;;;;;8.53;67.86;101024.44;125799;1104;22973;-59
2021/05/31 00:42:06;;;;;;;11.10;3.13;;;;;;;8.46;67.89;101021.11;125774;1096;26933;-58
2021/05/31 00:44:37;;;;;;;12.43;3.70;;;;;;;8.38;67.97;101026.10;125673;1102;24460;-58
2021/05/31 00:47:09;;;;;;;10.30;3.13;;;;;;;8.31;67.91;101017.20;125814;1096;27306;-59
2021/05/31 00:49:39;;;;;;;9.50;3.10;;;;;;;8.25;68.45;101022.55;125818;1101;22815;-58
2021/05/31 00:52:10;;;;;;;10.70;3.45;;;;;;;8.23;68.83;101030.53;125750;1102;22742;-58
2021/05/31 00:54:40;;;;;;;9.98;2.45;;;;;;;8.16;69.18;101017.63;125663;1096;22788;-58
2021/05/31 00:57:10;;;;;;;11.28;3.13;;;;;;;8.13;69.25;101014.95;126319;1087;22510;-57
2021/05/31 00:59:40;;;;;;;11.38;3.45;;;;;;;8.08;69.69;101013.50;125559;1104;22784;-58
2021/05/31 01:02:10;;;;;;;13.18;2.95;;;;;;;8.05;69.28;101013.58;125645;1104;22751;-57
2021/05/31 01:04:41;;;;;;;11.98;2.83;;;;;;;7.98;69.33;101014.61;125709;1104;22746;-57
2021/05/31 01:07:18;;;;;;;9.18;2.90;;;;;;;7.92;69.22;101008.03;125561;1096;25897;-58
2021/05/31 01:09:58;;;;;;;8.87;2.57;;;;;;;7.89;69.43;101016.45;125607;1096;22743;-61
2021/05/31 01:12:33;;;;;;;10.20;3.03;;;;;;;7.82;69.46;101011.13;125490;1096;25871;-58
2021/05/31 01:15:09;;;;;;;11.17;2.90;;;;;;;7.77;69.47;101006.09;125497;1104;22740;-58
2021/05/31 01:17:47;;;;;;;11.83;2.63;;;;;;;7.72;69.21;101009.41;125740;1104;22771;-58
2021/05/31 01:20:29;;;;;;;11.60;3.67;;;;;;;7.70;70.01;101020.19;125687;1104;22764;-59
2021/05/31 01:23:00;;;;;;;11.83;3.63;;;;;;;7.65;70.90;101020.74;125614;1096;26347;-59
2021/05/31 01:25:38;;;;;;;12.93;4.03;;;;;;;7.61;70.37;101023.63;125719;1096;26697;-58
2021/05/31 01:28:36;;;;;;;10.87;3.87;;;;;;;7.59;70.59;101017.73;125672;1096;25983;-59
2021/05/31 01:31:07;;;;;;;12.70;3.77;;;;;;;7.60;70.31;101012.94;125213;1106;22779;-57
2021/05/31 01:33:37;;;;;;;13.63;3.73;;;;;;;7.57;70.47;101002.72;125275;1107;23019;-58
2021/05/31 01:36:07;;;;;;;;;;;;;;;7.52;70.31;101006.02;125265;1107;22835;-58
2021/05/31 01:38:39;;;;;;;12.87;3.47;;;;;;;7.45;70.18;101001.44;125355;1108;24348;-61
2021/05/31 01:41:15;;;;;;;12.97;3.10;;;;;;;7.39;70.38;101000.42;125243;1107;22763;-60
2021/05/31 01:43:46;;;;;;;12.60;3.53;;;;;;;7.32;70.30;101006.19;125301;1100;26066;-59
2021/05/31 01:46:19;;;;;;;14.33;4.33;;;;;;;7.28;70.34;101000.71;125235;1099;25954;-59
2021/05/31 01:48:52;;;;;;;12.27;3.47;;;;;;;7.23;70.24;100995.70;125160;1107;22786;-59
2021/05/31 01:51:25;;;;;;;10.93;3.20;;;;;;;7.21;70.13;100994.58;125232;1100;22790;-59
2021/05/31 01:53:56;;;;;;;10.70;3.53;;;;;;;7.19;70.10;100991.46;125140;1107;22767;-58
2021/05/31 01:56:28;;;;;;;11.73;3.47;;;;;;;7.15;70.29;100991.56;125285;1104;22777;-56
2021/05/31 01:58:58;;;;;;;13.17;3.47;;;;;;;7.11;70.22;100999.21;125393;1100;22860;-59
2021/05/31 02:01:29;;;;;;;12.67;3.30;;;;;;;7.09;70.33;100986.98;125507;1099;23532;-59
2021/05/31 02:03:59;;;;;;;11.85;3.70;;;;;;;7.06;70.44;100993.39;125459;1104;22759;-58
2021/05/31 02:06:32;;;;;;;13.00;4.23;;;;;;;7.05;70.24;100989.86;125542;1099;27192;-58
2021/05/31 02:09:03;;;;;;;11.43;4.17;;;;;;;7.01;70.17;100993.94;125509;1104;22840;-60
2021/05/31 02:11:40;;;;;;;13.75;3.23;;;;;;;6.97;70.20;100984.92;125616;1104;22762;-58
2021/05/31 02:14:16;;;;;;;12.60;3.90;;;;;;;6.92;70.27;100986.23;125627;1096;26628;-59
2021/05/31 02:16:56;;;;;;;12.33;3.63;;;;;;;6.90;70.05;100996.98;125673;1096;25822;-59
2021/05/31 02:19:29;;;;;;;11.63;3.63;;;;;;;6.86;70.41;101001.84;125469;1096;26082;-59
2021/05/31 02:22:02;;;;;;;13.43;4.10;;;;;;;6.82;70.35;100997.59;125449;1096;25986;-59
2021/05/31 02:24:34;;;;;;;13.63;4.03;;;;;;;6.79;70.44;101001.23;125734;1104;22803;-57
2021/05/31 02:27:06;;;;;;;10.60;3.67;;;;;;;6.75;70.49;100998.55;125671;1104;22732;-55
2021/05/31 02:29:36;;;;;;;13.33;4.10;;;;;;;6.71;70.45;100995.09;125590;1104;22816;-56
2021/05/31 02:32:09;;;;;;;12.53;4.38;;;;;;;6.68;70.42;100998.75;125744;1104;22767;-57
2021/05/31 02:34:40;;;;;;;13.30;3.33;;;;;;;6.65;70.65;100996.04;125623;1104;22829;-58
2021/05/31 02:37:14;;;;;;;12.80;4.13;;;;;;;6.60;70.75;100997.34;125635;1096;27310;-58
2021/05/31 02:39:46;;;;;;;14.33;4.20;;;;;;;6.56;70.60;100999.42;125548;1104;24179;-59
2021/05/31 02:42:16;;;;;;;11.73;3.93;;;;;;;6.50;70.56;100999.17;125346;1096;22825;-60
2021/05/31 02:44:47;;;;;;;14.98;5.18;;;;;;;6.47;70.69;100996.48;125701;1096;27177;-57
2021/05/31 02:47:18;;;;;;;11.47;4.07;;;;;;;6.45;70.86;100998.91;125497;1096;22747;-58
2021/05/31 02:49:48;;;;;;;11.05;3.75;;;;;;;6.41;70.68;101001.75;125484;1096;26236;-59
2021/05/31 02:52:18;;;;;;;14.73;4.67;;;;;;;6.38;70.74;100999.86;125623;1096;25934;-61
2021/05/31 02:54:48;;;;;;;11.63;3.98;;;;;;;6.33;70.93;100996.83;125501;1104;22754;-56
2021/05/31 02:57:20;;;;;;;11.00;3.83;;;;;;;6.29;71.10;100990.59;125500;1096;22753;-59
2021/05/31 02:59:52;;;;;;;14.00;3.77;;;;;;;6.23;70.98;100987.53;125612;1096;26476;-59
2021/05/31 03:02:21;;;;;;;13.10;4.60;;;;;;;6.21;71.19;100991.94;125500;1104;22784;-58
2021/05/31 03:04:51;;;;;;;14.78;4.85;;;;;;;6.17;71.19;100989.25;125516;1104;22730;-60
2021/05/31 03:07:21;;;;;;;15.65;4.73;;;;;;;6.16;71.17;100998.02;125503;1096;27775;-56
2021/05/31 03:09:51;;;;;;;14.45;4.45;;;;;;;6.11;71.34;100992.96;125506;1104;22883;-58
2021/05/31 03:12:22;;;;;;;12.83;4.88;;;;;;;6.10;71.39;100996.96;125624;1104;22764;-58
2021/05/31 03:14:53;;;;;;;14.27;5.00;;;;;;;6.09;71.20;100990.63;125576;1096;22764;-59
2021/05/31 03:17:24;;;;;;;13.73;4.90;;;;;;;6.10;71.56;100992.20;125599;1096;27169;-59
2021/05/31 03:19:54;;;;;;;14.68;4.65;;;;;;;6.10;71.66;100994.19;125559;1096;26247;-58
2021/05/31 03:22:24;;;;;;;15.33;4.65;;;;;;;6.07;71.76;101009.69;125596;1101;22928;-58
2021/05/31 03:24:54;;;;;;;16.63;4.65;;;;;;;6.05;71.72;100992.70;125745;1104;22741;-58
2021/05/31 03:27:23;;;;;;;16.57;5.50;;;;;;;6.03;71.67;101002.66;125513;1096;25823;-57
2021/05/31 03:29:54;;;;;;;14.28;5.08;;;;;;;6.02;72.03;100998.34;125539;1096;24455;-56
2021/05/31 03:32:25;;;;;;;14.73;5.20;;;;;;;6.02;71.78;100992.80;125477;1096;22761;-58
2021/05/31 03:34:55;;;;;;;17.83;6.00;;;;;;;6.01;72.05;100994.77;125533;1104;22750;-58
2021/05/31 03:37:27;;;;;;;15.83;5.60;;;;;;;6.01;72.15;100982.90;125649;1104;22697;-58
2021/05/31 03:39:57;;;;;;;16.53;5.27;;;;;;;6.02;72.03;100990.02;125562;1104;22832;-59
2021/05/31 03:42:27;;;;;;;18.43;5.15;;;;;;;6.03;72.22;100983.25;125531;1096;22760;-57
2021/05/31 03:44:56;;;;;;;;;;;;;;;6.03;72.45;100983.25;125595;1104;24403;-56
2021/05/31 03:47:28;;;;;;;13.67;4.97;;;;;;;6.03;72.78;100981.27;125456;1096;23135;-58
2021/05/31 03:49:59;;;;;;;14.60;5.33;;;;;;;6.08;72.43;100977.20;125535;1104;22833;-58
2021/05/31 03:52:28;;;;;;;16.23;5.67;;;;;;;6.10;72.55;100981.12;125533;1104;22759;-56
2021/05/31 03:54:58;;;;;;;14.48;5.53;;;;;;;6.14;72.58;100979.05;125588;1104;22826;-59
2021/05/31 03:57:28;;;;;;;14.93;4.78;;;;;;;6.17;72.69;100978.17;125699;1096;25842;-59
2021/05/31 03:59:59;;;;;;;15.25;5.85;;;;;;;6.25;74.07;100987.09;125570;1104;22868;-59
2021/05/31 04:02:27;;;;;;;;;;;;;;;6.33;74.46;100992.04;125895;1103;22818;-58
2021/05/31 04:04:58;;;;;;;16.10;5.03;;;;;;;6.40;74.48;100988.33;125553;1104;21474;-58
2021/05/31 04:13:04;;;;;;;16.87;6.20;;;;;;;6.64;74.15;100977.84;125527;1096;26210;-59
2021/05/31 04:15:34;;;;;;;16.13;5.83;;;;;;;6.69;74.14;100974.53;125636;1096;27217;-59
2021/05/31 04:18:04;;;;;;;16.23;5.48;;;;;;;6.77;74.05;100976.70;125579;1104;22760;-60
2021/05/31 04:20:38;;;;;;;16.75;5.05;;;;;;;6.86;73.99;100976.88;125549;1104;22747;-59
2021/05/31 04:23:08;;;;;;;16.77;5.53;;;;;;;6.99;74.11;100982.48;125755;1104;24543;-59
2021/05/31 04:25:38;;;;;;;16.23;5.60;;;;;;;7.09;74.20;100981.42;125801;1096;25896;-59
2021/05/31 04:28:08;;;;;;;15.63;5.33;;;;;;;7.19;74.42;100986.70;125589;1096;25438;-59
2021/05/31 04:30:41;;;;;;;17.03;5.85;;;;;;;7.32;74.10;100993.06;125590;1104;22767;-58
2021/05/31 04:33:11;;;;;;;13.30;5.10;;;;;;;7.44;74.34;100985.22;125662;1096;26191;-57
2021/05/31 04:35:41;;;;;;;18.08;6.03;;;;;;;7.54;74.26;100990.48;125979;1097;22768;-59
2021/05/31 04:38:11;;;;;;;14.75;5.83;;;;;;;7.67;74.75;100996.07;125555;1096;26244;-62
2021/05/31 04:40:41;;;;;;;13.75;4.03;;;;;;;7.76;74.71;100994.19;125554;1104;22759;-61
2021/05/31 04:43:11;;;;;;;17.30;5.63;;;;;;;7.87;74.91;100993.88;125530;1104;22746;-62
2021/05/31 04:45:41;;;;;;;16.23;6.38;;;;;;;7.98;74.90;100989.58;125470;1104;22809;-60
2021/05/31 04:48:12;;;;;;;15.47;5.87;;;;;;;8.09;74.78;100990.02;125665;1096;27628;-61
2021/05/31 04:50:42;;;;;;;17.70;5.80;;;;;;;8.20;75.13;100989.69;125697;1096;22761;-62
2021/05/31 04:53:12;;;;;;;16.60;6.33;;;;;;;8.32;75.06;100979.83;125788;1096;22841;-61
2021/05/31 04:55:42;;;;;;;16.23;5.97;;;;;;;8.42;75.40;100976.69;125710;1104;22761;-64
2021/05/31 04:58:12;;;;;;;17.30;4.85;;;;;;;8.54;74.56;100984.27;125715;1096;28812;-62
2021/05/31 05:00:42;;;;;;;14.00;4.70;;;;;;;8.66;74.26;100985.46;125532;1096;22764;-62
2021/05/31 05:03:12;;;;;;;13.10;4.00;;;;;;;8.75;74.11;100983.53;125367;1104;22747;-62
2021/05/31 05:05:42;;;;;;;15.35;4.60;;;;;;;8.89;74.09;100982.30;125457;1104;22764;-62
2021/05/31 05:08:12;;;;;;;14.83;4.28;;;;;;;9.02;73.93;100980.27;125243;1104;22725;-62
2021/05/31 05:10:42;;;;;;;9.83;3.23;;;;;;;9.12;73.45;100981.89;125203;1104;22764;-62
2021/05/31 05:13:12;;;;;;;;;;;;;;;9.26;73.35;100986.17;125485;1096;27170;-62
2021/05/31 05:15:42;;;;;;;15.67;3.90;;;;;;;9.38;73.57;100979.77;125533;1104;21477;-66
2021/05/31 05:18:13;;;;;;;12.08;2.88;;;;;;;9.53;73.37;100980.81;125528;1104;22747;-62
2021/05/31 05:20:44;;;;;;;11.20;3.13;;;;;;;9.66;73.62;100985.07;125588;1104;23198;-65
2021/05/31 05:23:14;;;;;;;;;;;;;;;9.85;73.24;100980.38;125498;1104;22765;-63
2021/05/31 05:25:46;;;;;;;13.00;3.40;;;;;;;9.97;72.66;100975.97;125461;1104;21487;-62
2021/05/31 05:28:15;;;;;;;11.40;3.10;;;;;;;10.05;72.23;100975.23;128253;1104;22768;-62
2021/05/31 05:30:49;;;;;;;9.73;2.85;;;;;;;10.13;72.19;100984.13;125426;1104;22760;-63
2021/05/31 05:33:20;;;;;;;16.27;3.27;;;;;;;10.25;71.93;100970.08;125625;1096;22756;-63
2021/05/31 05:35:54;;;;;;;14.33;3.28;;;;;;;10.35;71.49;100970.88;125498;1104;22854;-62
2021/05/31 05:38:37;;;;;;;12.37;2.93;;;;;;;10.42;71.12;100971.39;125575;1096;25871;-63
2021/05/31 05:41:31;;;;;;;14.77;3.57;;;;;;;10.47;71.26;100965.19;125492;1096;26327;-62
2021/05/31 05:44:37;;;;;;;13.85;3.50;;;;;;;10.55;71.10;100969.23;125539;1096;26226;-62
2021/05/31 05:49:51;;;;;;;14.67;3.00;;;;;;;10.68;70.48;100974.70;125486;1096;27173;-63
2021/05/31 05:52:21;;;;;;;10.20;2.88;;;;;;;10.74;70.57;100978.43;125678;1096;22747;-62
2021/05/31 05:54:54;;;;;;;10.13;2.88;;;;;;;10.85;70.32;100972.41;125567;1096;27237;-63
2021/05/31 05:57:24;;;;;;;16.17;3.40;;;;;;;10.90;70.23;100969.79;125769;1096;27937;-62
2021/05/31 05:59:54;;;;;;;16.50;3.53;;;;;;;11.03;70.04;100969.63;125859;1096;27690;-62
2021/05/31 06:02:25;;;;;;;13.63;3.90;;;;;;;11.10;69.97;100970.11;125670;1104;22749;-63
2021/05/31 06:04:56;;;;;;;13.37;3.33;;;;;;;11.26;69.84;100977.40;125473;1104;22743;-62
2021/05/31 06:07:26;;;;;;;11.43;3.13;;;;;;;11.36;70.27;100974.14;125491;1104;23105;-64
2021/05/31 06:09:56;;;;;;;11.10;3.20;;;;;;;11.49;69.51;100975.98;125526;1096;26209;-62
2021/05/31 06:12:26;;;;;;;11.60;2.88;;;;;;;11.51;69.08;100974.28;126325;1104;22779;-62
2021/05/31 06:14:56;;;;;;;11.63;3.27;;;;;;;11.63;69.04;100980.96;125527;1096;24710;-63
2021/05/31 06:17:26;;;;;;;12.20;2.98;;;;;;;11.66;68.50;100989.22;125548;1104;22757;-62
2021/05/31 06:20:00;;;;;;;10.20;2.70;;;;;;;11.72;68.83;100986.55;125561;1096;27250;-64
2021/05/31 06:22:32;;;;;;;11.17;2.60;;;;;;;11.84;68.86;100983.58;125545;1104;22829;-62
2021/05/31 06:25:02;;;;;;;12.47;2.73;;;;;;;11.96;68.39;100987.42;125530;1104;22764;-62
2021/05/31 06:27:32;;;;;;;11.63;3.20;;;;;;;12.04;68.21;100986.63;125548;1096;26391;-62
2021/05/31 06:30:02;;;;;;;9.80;2.53;;;;;;;12.11;68.09;100986.30;125540;1096;26414;-64
2021/05/31 06:32:35;;;;;;;10.83;2.50;;;;;;;12.17;67.51;100992.80;125543;1104;22750;-63
2021/05/31 06:35:07;;;;;;;10.50;2.57;;;;;;;12.27;67.75;100998.38;125608;1096;22763;-63
2021/05/31 06:37:38;;;;;;;9.53;1.90;;;;;;;12.35;67.65;100989.17;125624;1096;27309;-63
2021/05/31 06:40:12;;;;;;;9.35;2.60;;;;;;;12.51;67.29;100993.59;125731;1104;24251;-63
2021/05/31 06:42:44;;;;;;;9.00;2.30;;;;;;;12.59;66.09;100983.59;125731;1096;22977;-64
2021/05/31 06:45:21;;;;;;;11.43;2.23;;;;;;;12.59;65.93;100986.39;125649;1096;26210;-62
2021/05/31 06:47:53;;;;;;;6.87;2.00;;;;;;;12.63;65.39;100990.58;125558;1104;24448;-62
2021/05/31 06:50:25;;;;;;;8.60;2.10;;;;;;;12.67;64.73;100984.79;125580;1104;22763;-63
2021/05/31 06:52:55;;;;;;;7.10;1.75;;;;;;;12.74;65.81;100973.25;125585;1104;22734;-62
2021/05/31 06:55:27;;;;;;;8.45;2.30;;;;;;;12.82;65.21;100974.44;125604;1104;22740;-63
2021/05/31 06:57:59;;;;;;;10.07;2.00;;;;;;;12.93;65.31;100975.44;125621;1104;22764;-63
2021/05/31 07:00:30;;;;;;;8.33;1.50;;;;;;;12.97;62.78;100976.03;125591;1104;22755;-63
2021/05/31 07:03:00;;;;;;;6.93;1.50;;;;;;;12.92;62.58;100981.52;125728;1096;22743;-63
2021/05/31 07:05:30;;;;;;;7.37;1.40;;;;;;;12.95;61.99;100980.58;125527;1104;22768;-63
2021/05/31 07:08:00;;;;;;;9.08;1.30;;;;;;;12.97;61.10;100980.88;125486;1104;22768;-63
2021/05/31 07:10:29;;;;;;;;;;;;;;;12.99;61.26;100979.13;125562;1104;22825;-63
2021/05/31 07:13:01;;;;;;;9.05;1.20;;;;;;;13.00;60.63;100971.50;125651;1104;23172;-63
2021/05/31 07:15:34;;;;;;;6.50;1.20;;;;;;;13.07;60.38;100976.00;125828;1096;26302;-63
2021/05/31 07:18:05;;;;;;;8.30;1.30;;;;;;;13.16;60.89;100970.34;125552;1104;22765;-64
2021/05/31 07:20:35;;;;;;;6.35;1.20;;;;;;;13.28;60.98;100964.47;125604;1104;24472;-64
2021/05/31 07:23:06;;;;;;;4.30;1.10;;;;;;;13.41;60.61;100976.17;125665;1104;22868;-63
2021/05/31 07:25:38;;;;;;;6.53;1.30;;;;;;;13.51;60.57;100974.08;125650;1104;22771;-63
2021/05/31 07:28:08;;;;;;;8.10;1.55;;;;;;;13.60;60.12;100965.56;125584;1096;27173;-63
2021/05/31 07:30:38;;;;;;;7.58;1.25;;;;;;;13.69;58.92;100976.70;125611;1096;27594;-62
2021/05/31 07:33:10;;;;;;;;;;;;;;;13.70;58.66;100973.41;125607;1096;26216;-63
2021/05/31 07:35:40;;;;;;;5.97;1.00;;;;;;;13.70;57.43;100976.22;125746;1096;23183;-63
2021/05/31 07:38:11;;;;;;;6.28;1.20;;;;;;;13.72;57.06;100976.51;125537;1104;22818;-62
2021/05/31 07:40:43;;;;;;;5.40;1.00;;;;;;;13.72;56.37;100973.70;125562;1104;22728;-63
2021/05/31 07:43:13;;;;;;;9.80;1.00;;;;;;;13.75;57.06;100969.16;125596;1104;24469;-62
2021/05/31 07:45:44;;;;;;;7.60;1.10;;;;;;;13.80;57.08;100963.63;125643;1104;24517;-63
2021/05/31 07:48:14;;;;;;;7.23;1.20;;;;;;;13.84;57.35;100957.06;125622;1104;22772;-63
2021/05/31 07:50:44;;;;;;;8.88;1.53;;;;;;;13.91;57.97;100953.84;125672;1096;27212;-63
2021/05/31 07:53:20;;;;;;;5.07;1.00;;;;;;;14.03;56.59;100949.99;125643;1104;22747;-62
2021/05/31 07:55:49;;;;;;;8.10;1.30;;;;;;;14.14;56.22;100948.13;125571;1104;22748;-63
2021/05/31 07:58:19;;;;;;;7.00;0.80;;;;;;;14.18;55.13;100956.34;125595;1104;22785;-63
2021/05/31 08:00:49;;;;;;;4.50;0.70;;;;;;;14.23;54.56;100950.05;125527;1096;28870;-63
2021/05/31 08:03:19;;;;;;;2.93;0.50;;;;;;;14.30;54.58;100946.85;125577;1104;22809;-64
2021/05/31 08:05:49;;;;;;;;;;;;;;;14.37;51.92;100946.46;125600;1096;25867;-63
2021/05/31 08:08:19;;;;;;;5.80;0.90;;;;;;;14.43;54.06;100936.08;125750;1104;21468;-63
2021/05/31 08:10:49;;;;;;;4.68;0.75;;;;;;;14.52;54.23;100947.95;125542;1104;22747;-63
2021/05/31 08:13:19;;;;;;;6.03;0.80;;;;;;;14.64;53.57;100948.11;125649;1096;26210;-63
2021/05/31 08:15:49;;;;;;;4.23;0.70;;;;;;;14.73;53.51;100943.16;125653;1104;22900;-64
2021/05/31 08:18:20;;;;;;;3.93;0.70;;;;;;;14.87;53.34;100947.93;125690;1104;22910;-64
2021/05/31 08:20:51;;;;;;;6.00;1.00;;;;;;;14.94;52.72;100941.12;125758;1104;22932;-64
2021/05/31 08:23:22;;;;;;;4.50;0.60;;;;;;;15.00;51.55;100948.33;125661;1104;22773;-63
2021/05/31 08:25:52;;;;;;;3.57;0.70;;;;;;;15.01;50.55;100941.45;125556;1104;22764;-63
2021/05/31 08:28:22;;;;;;;6.33;0.80;;;;;;;15.00;49.30;100945.52;125667;1096;26664;-63
2021/05/31 08:30:52;;;;;;;5.33;0.70;;;;;;;15.00;49.58;100939.89;125639;1104;22819;-63
2021/05/31 08:33:22;;;;;;;10.65;0.85;;;;;;;15.03;48.79;100947.36;125645;1096;22744;-64
2021/05/31 08:35:51;;;;;;;;;;;;;;;15.07;49.88;100945.11;125614;1096;26270;-64
2021/05/31 08:38:21;;;;;;;5.55;0.80;;;;;;;15.18;50.20;100942.43;125664;1096;24652;-63
2021/05/31 08:40:51;;;;;;;2.78;0.63;;;;;;;15.25;49.56;100935.58;125575;1104;22725;-63
2021/05/31 08:43:22;;;;;;;4.27;0.97;;;;;;;15.30;48.23;100930.03;125768;1104;22764;-63
2021/05/31 08:45:50;;;;;;;;;;;;;;;15.38;49.60;100927.55;125623;1096;25867;-65
2021/05/31 08:48:23;;;;;;;7.35;0.80;;;;;;;15.47;49.40;100923.83;125687;1104;21474;-62
2021/05/31 08:50:54;;;;;;;2.65;0.75;;;;;;;15.58;49.32;100926.77;125686;1104;22764;-63
2021/05/31 08:53:24;;;;;;;7.25;0.80;;;;;;;15.60;48.13;100916.53;125533;1104;22775;-63
2021/05/31 08:55:54;;;;;;;5.20;0.70;;;;;;;15.66;48.90;100917.38;125569;1104;25377;-63
2021/05/31 08:58:23;;;;;;;4.50;0.78;;;;;;;15.75;48.09;100914.38;125663;1104;23599;-63
2021/05/31 09:00:53;;;;;;;3.98;0.80;;;;;;;15.82;47.24;100913.16;125579;1096;24723;-63
2021/05/31 09:03:29;;;;;;;4.78;0.50;;;;;;;15.84;46.55;100907.80;125567;1104;22883;-63
2021/05/31 09:06:04;;;;;;;2.70;0.50;;;;;;;15.93;46.29;100907.63;125600;1104;25497;-64
2021/05/31 09:08:39;;;;;;;3.45;0.55;;;;;;;16.02;45.01;100913.05;125733;1104;22774;-63
2021/05/31 09:11:21;;;;;;;2.45;0.60;;;;;;;16.06;43.71;100916.41;125625;1096;22829;-62
2021/05/31 09:13:51;;;;;;;4.60;0.50;;;;;;;16.09;41.80;100918.23;125719;1104;22764;-64
2021/05/31 09:16:24;;;;;;;4.10;0.60;;;;;;;16.13;43.80;100921.59;125501;1096;27214;-63
2021/05/31 09:19:00;;;;;;;3.97;0.60;;;;;;;16.15;42.61;100919.05;125696;1104;22882;-63
2021/05/31 09:21:32;;;;;;;4.10;0.80;;;;;;;16.13;43.19;100919.55;125694;1104;22766;-63
2021/05/31 09:24:04;;;;;;;3.20;0.50;;;;;;;16.20;43.57;100918.33;125582;1104;22920;-63
2021/05/31 09:26:46;;;;;;;2.40;0.60;;;;;;;16.23;43.24;100906.03;125696;1096;27151;-64
2021/05/31 09:29:16;;;;;;;2.50;0.50;;;;;;;16.24;42.84;100913.23;125642;1104;24427;-63
2021/05/31 09:31:57;;;;;;;4.30;0.80;;;;;;;16.27;44.22;100900.94;125536;1104;24309;-63
2021/05/31 09:34:31;;;;;;;4.07;0.77;;;;;;;16.36;43.30;100914.84;125570;1096;22744;-66
2021/05/31 09:37:08;;;;;;;5.65;0.80;;;;;;;16.36;43.79;100902.79;125609;1104;22752;-64
2021/05/31 09:39:41;;;;;;;2.90;0.80;;;;;;;16.34;43.76;100903.30;125739;1096;24407;-64
2021/05/31 09:42:16;;;;;;;6.50;1.00;;;;;;;16.38;43.79;100903.05;125587;1104;22741;-63
2021/05/31 09:45:01;;;;;;;5.17;0.80;;;;;;;16.45;43.93;100896.96;125663;1096;27120;-64
2021/05/31 09:47:33;;;;;;;3.20;0.70;;;;;;;16.52;44.47;100902.91;125734;1104;22785;-64
2021/05/31 09:50:07;;;;;;;5.77;1.17;;;;;;;16.60;44.85;100892.70;125659;1104;22813;-64
2021/05/31 09:52:37;;;;;;;3.85;0.90;;;;;;;16.62;44.04;100900.64;125723;1096;26279;-63
2021/05/31 09:55:09;;;;;;;;;;;;;;;16.64;44.23;100889.63;125635;1104;22826;-63
2021/05/31 09:57:43;;;;;;;5.40;0.90;;;;;;;16.66;44.22;100889.90;125799;1098;21471;-64
2021/05/31 10:00:17;;;;;;;4.53;0.90;;;;;;;16.70;44.76;100891.20;125545;1104;22770;-64
2021/05/31 10:02:53;;;;;;;7.75;1.00;;;;;;;16.78;44.71;100874.59;125684;1104;22829;-64
2021/05/31 10:05:32;;;;;;;5.50;0.85;;;;;;;16.88;45.00;100887.94;125634;1104;22869;-63
2021/05/31 10:08:15;;;;;;;4.40;0.60;;;;;;;16.97;44.90;100876.45;125563;1104;22836;-64
2021/05/31 10:10:46;;;;;;;4.70;0.60;;;;;;;17.01;44.05;100879.02;125628;1104;22825;-69
2021/05/31 10:13:18;;;;;;;4.37;0.90;;;;;;;16.99;44.11;100881.56;125567;1104;22747;-64
2021/05/31 10:15:49;;;;;;;4.40;0.90;;;;;;;17.08;44.23;100880.57;125633;1104;22889;-62
2021/05/31 10:18:20;;;;;;;3.47;1.20;;;;;;;17.15;44.58;100880.87;125864;1104;22741;-62
2021/05/31 10:20:51;;;;;;;3.10;0.70;;;;;;;17.26;43.51;100882.92;125597;1096;22771;-63
2021/05/31 10:23:21;;;;;;;4.03;0.90;;;;;;;17.37;44.20;100872.44;125816;1104;22822;-64
2021/05/31 10:25:58;;;;;;;2.90;0.90;;;;;;;17.44;44.10;100871.17;125455;1096;26209;-63
2021/05/31 10:28:30;;;;;;;5.80;0.90;;;;;;;17.43;43.71;100866.79;125616;1104;24403;-63
2021/05/31 10:31:03;;;;;;;7.50;0.90;;;;;;;17.42;44.38;100863.19;125508;1104;22765;-63
2021/05/31 10:33:37;;;;;;;3.25;0.65;;;;;;;17.36;44.04;100865.23;125721;1096;27192;-63
2021/05/31 10:36:15;;;;;;;6.10;1.10;;;;;;;17.31;44.48;100857.55;125584;1104;22762;-62
2021/05/31 10:38:49;;;;;;;6.75;0.90;;;;;;;17.31;44.64;100866.02;128216;1096;22838;-62
2021/05/31 10:41:22;;;;;;;7.60;1.15;;;;;;;17.36;44.00;100868.06;125866;1104;22845;-64
2021/05/31 10:43:54;;;;;;;7.45;1.10;;;;;;;17.46;43.83;100854.48;125721;1104;22747;-64
2021/05/31 10:46:29;;;;;;;7.20;1.20;;;;;;;17.52;43.20;100861.71;125735;1096;26695;-63
2021/05/31 10:49:03;;;;;;;4.70;0.90;;;;;;;17.59;43.83;100858.36;125707;1104;22744;-65
2021/05/31 10:51:41;;;;;;;5.50;0.90;;;;;;;17.73;44.22;100862.23;125653;1096;27306;-64
2021/05/31 10:54:15;;;;;;;7.30;1.35;;;;;;;17.79;43.98;100857.34;125799;1096;27202;-64
2021/05/31 10:56:47;;;;;;;6.10;1.00;;;;;;;17.77;43.70;100857.09;125650;1096;26305;-63
2021/05/31 10:59:22;;;;;;;7.90;1.10;;;;;;;17.75;43.81;100854.02;125666;1096;27425;-64
2021/05/31 11:01:53;;;;;;;4.70;0.80;;;;;;;17.78;43.27;100861.44;125619;1096;26463;-63
2021/05/31 11:04:26;;;;;;;2.75;0.65;;;;;;;17.79;42.88;100849.63;125574;1096;22764;-64
2021/05/31 11:07:04;;;;;;;6.70;0.85;;;;;;;17.84;42.77;100850.13;125690;1104;22750;-64
2021/05/31 11:09:36;;;;;;;5.30;0.80;;;;;;;17.82;42.83;100853.48;125737;1105;22918;-64
2021/05/31 11:12:10;;;;;;;3.25;0.80;;;;;;;17.76;42.42;100845.02;125755;1104;22747;-65
2021/05/31 11:14:43;;;;;;;3.05;0.80;;;;;;;17.73;42.39;100853.76;125935;1104;22737;-64
2021/05/31 11:17:14;;;;;;;4.03;0.83;;;;;;;17.71;42.77;100850.68;125716;1104;22765;-63
2021/05/31 11:19:46;;;;;;;4.20;0.90;;;;;;;17.71;42.28;100842.20;125706;1096;26241;-63
2021/05/31 11:22:19;;;;;;;4.70;0.80;;;;;;;17.77;42.53;100845.80;125676;1096;22754;-64
2021/05/31 11:24:53;;;;;;;4.65;0.95;;;;;;;17.85;42.61;100846.03;125670;1104;24170;-64
2021/05/31 11:27:29;;;;;;;3.15;0.80;;;;;;;17.88;42.27;100842.94;125600;1096;25922;-64
2021/05/31 11:29:59;;;;;;;5.75;0.80;;;;;;;17.91;42.41;100836.27;125597;1104;22783;-63
2021/05/31 11:32:30;;;;;;;4.83;0.90;;;;;;;18.06;43.13;100827.52;125644;1104;24442;-63
2021/05/31 11:35:18;;;;;;;4.75;0.90;;;;;;;18.17;43.50;100828.25;125696;1104;22743;-63
2021/05/31 11:37:49;;;;;;;6.50;1.00;;;;;;;18.20;42.61;100835.70;125655;1104;22821;-63
2021/05/31 11:40:24;;;;;;;10.85;1.20;;;;;;;18.12;41.33;100840.35;125662;1104;22752;-64
2021/05/31 11:42:56;;;;;;;3.65;0.70;;;;;;;18.04;42.20;100832.91;125609;1104;22751;-64
2021/05/31 11:45:32;;;;;;;5.80;1.00;;;;;;;18.00;42.65;100835.98;125599;1096;24445;-63
2021/05/31 11:48:04;;;;;;;2.70;0.70;;;;;;;18.02;41.02;100830.59;125573;1104;22755;-64
2021/05/31 11:50:35;;;;;;;2.35;0.80;;;;;;;18.00;41.41;100821.86;125740;1104;22777;-65